Weymouth Hm Seatac — WEYPD — position and weather

sailwx.info

Track history (hours):
 
Tides and Currents Weather Stations Pressure Air Temp Water Temp Dewpoint Dewpoint Depression Visibility Wind Speed Wind Dir Waves Ship Positions

Weymouth Hm Seatac

Last reported at 2017-Nov-02 15:16 UTC. Time now 2017-Dec-18 14:46 UTC.
Position N 42°16' W 070°55'.
Warning: this ship's position is 45 days out of date.

; draft 1 m.

Type: Law enforcement. MMSI: 338111358.

Date/timePositionNaut miles runAvg speedWind from/ knotsBaromVisibWave heightAir tempDewpointWater temp
2017-Nov-02 15:16N 42°16' W 070°55'1 2.1
2017-Nov-02 14:43N 42°17' W 070°56'2 7.6
2017-Nov-02 14:30N 42°18' W 070°55'0 0.2
2017-Nov-02 14:00N 42°18' W 070°55'  
2017-Oct-29 19:10N 42°15' W 070°55'1 3.3
2017-Oct-29 18:58N 42°16' W 070°56'0 0.0
2017-Oct-29 16:59N 42°16' W 070°56'  
2017-Oct-26 15:27N 42°16' W 070°55'4 3.6
2017-Oct-26 14:27N 42°19' W 070°56'4 0.2
2017-Oct-25 16:22N 42°16' W 070°55'720.6
2017-Oct-25 16:01N 42°21' W 071°02'1 0.4
2017-Oct-25 12:40N 42°22' W 071°03'1 6.9
2017-Oct-25 12:30N 42°21' W 071°02'  
Track history (hours):
 
Tides and Currents Weather Stations Pressure Air Temp Water Temp Dewpoint Dewpoint Depression Visibility Wind Speed Wind Dir Waves Ship Positions

Weymouth Hm Seatac

Last reported at 2017-Nov-02 15:16 UTC. Time now 2017-Dec-18 14:46 UTC.
Position N 42°16' W 070°55'.
Warning: this ship's position is 45 days out of date.

; draft 1 m.

Type: Law enforcement. MMSI: 338111358.

Date/timePositionNaut miles runAvg speedWind from/ knotsBaromVisibWave heightAir tempDewpointWater temp
2017-Nov-02 15:16N 42°16' W 070°55'1 2.1
2017-Nov-02 14:43N 42°17' W 070°56'2 7.6
2017-Nov-02 14:30N 42°18' W 070°55'0 0.2
2017-Nov-02 14:00N 42°18' W 070°55'  
2017-Oct-29 19:10N 42°15' W 070°55'1 3.3
2017-Oct-29 18:58N 42°16' W 070°56'0 0.0
2017-Oct-29 16:59N 42°16' W 070°56'  
2017-Oct-26 15:27N 42°16' W 070°55'4 3.6
2017-Oct-26 14:27N 42°19' W 070°56'4 0.2
2017-Oct-25 16:22N 42°16' W 070°55'720.6
2017-Oct-25 16:01N 42°21' W 071°02'1 0.4
2017-Oct-25 12:40N 42°22' W 071°03'1 6.9
2017-Oct-25 12:30N 42°21' W 071°02'  

Dump ship's entire track history